sensor_id;sensor_type;location;lat;lon;timestamp;P1;durP1;ratioP1;P2;durP2;ratioP2
63110;SDS011;49201;53.426;10.300;2022-12-07T00:03:39;39.43;;;22.47;;
63110;SDS011;49201;53.426;10.300;2022-12-07T00:06:06;43.00;;;24.20;;
63110;SDS011;49201;53.426;10.300;2022-12-07T00:08:33;43.63;;;24.10;;
63110;SDS011;49201;53.426;10.300;2022-12-07T00:11:09;44.70;;;25.30;;
63110;SDS011;49201;53.426;10.300;2022-12-07T00:13:36;52.90;;;24.87;;
63110;SDS011;49201;53.426;10.300;2022-12-07T00:18:30;43.00;;;25.63;;
63110;SDS011;49201;53.426;10.300;2022-12-07T00:21:14;44.33;;;24.33;;
63110;SDS011;49201;53.426;10.300;2022-12-07T00:23:43;45.17;;;24.13;;
63110;SDS011;49201;53.426;10.300;2022-12-07T00:26:11;39.17;;;23.47;;
63110;SDS011;49201;53.426;10.300;2022-12-07T00:28:41;42.03;;;23.87;;
63110;SDS011;49201;53.426;10.300;2022-12-07T00:31:10;44.50;;;23.93;;
63110;SDS011;49201;53.426;10.300;2022-12-07T00:33:37;44.60;;;24.07;;
63110;SDS011;49201;53.426;10.300;2022-12-07T00:36:04;38.73;;;23.07;;
63110;SDS011;49201;53.426;10.300;2022-12-07T00:38:32;42.73;;;24.07;;
63110;SDS011;49201;53.426;10.300;2022-12-07T00:41:03;43.97;;;24.33;;
63110;SDS011;49201;53.426;10.300;2022-12-07T00:43:30;41.13;;;23.27;;
63110;SDS011;49201;53.426;10.300;2022-12-07T00:45:56;37.40;;;23.07;;
63110;SDS011;49201;53.426;10.300;2022-12-07T00:48:22;41.63;;;23.23;;
63110;SDS011;49201;53.426;10.300;2022-12-07T00:50:48;39.90;;;23.73;;
63110;SDS011;49201;53.426;10.300;2022-12-07T00:53:14;40.23;;;22.97;;
63110;SDS011;49201;53.426;10.300;2022-12-07T00:55:40;38.30;;;23.60;;
63110;SDS011;49201;53.426;10.300;2022-12-07T00:58:06;41.57;;;23.73;;
63110;SDS011;49201;53.426;10.300;2022-12-07T01:00:32;40.70;;;23.87;;
63110;SDS011;49201;53.426;10.300;2022-12-07T01:02:58;38.67;;;21.97;;
63110;SDS011;49201;53.426;10.300;2022-12-07T01:05:24;37.47;;;21.10;;
63110;SDS011;49201;53.426;10.300;2022-12-07T01:07:49;39.73;;;22.40;;
63110;SDS011;49201;53.426;10.300;2022-12-07T01:10:15;36.70;;;22.10;;
63110;SDS011;49201;53.426;10.300;2022-12-07T01:12:40;42.47;;;21.57;;
63110;SDS011;49201;53.426;10.300;2022-12-07T01:15:06;36.07;;;21.40;;
63110;SDS011;49201;53.426;10.300;2022-12-07T01:17:32;36.33;;;20.87;;
63110;SDS011;49201;53.426;10.300;2022-12-07T01:19:58;38.50;;;20.63;;
63110;SDS011;49201;53.426;10.300;2022-12-07T01:22:23;32.33;;;19.53;;
63110;SDS011;49201;53.426;10.300;2022-12-07T01:24:49;38.20;;;19.43;;
63110;SDS011;49201;53.426;10.300;2022-12-07T01:27:14;32.93;;;19.53;;
63110;SDS011;49201;53.426;10.300;2022-12-07T01:29:40;30.50;;;18.40;;
63110;SDS011;49201;53.426;10.300;2022-12-07T01:32:06;31.63;;;18.17;;
63110;SDS011;49201;53.426;10.300;2022-12-07T01:34:31;35.10;;;19.03;;
63110;SDS011;49201;53.426;10.300;2022-12-07T01:36:56;30.50;;;18.63;;
63110;SDS011;49201;53.426;10.300;2022-12-07T01:39:22;33.57;;;18.87;;
63110;SDS011;49201;53.426;10.300;2022-12-07T01:41:48;29.67;;;17.43;;
63110;SDS011;49201;53.426;10.300;2022-12-07T01:44:18;31.70;;;17.20;;
63110;SDS011;49201;53.426;10.300;2022-12-07T01:46:47;34.73;;;18.53;;
63110;SDS011;49201;53.426;10.300;2022-12-07T01:49:16;35.37;;;18.13;;
63110;SDS011;49201;53.426;10.300;2022-12-07T01:51:46;32.57;;;17.67;;
63110;SDS011;49201;53.426;10.300;2022-12-07T01:54:14;37.37;;;19.40;;
63110;SDS011;49201;53.426;10.300;2022-12-07T01:56:42;32.63;;;18.07;;
63110;SDS011;49201;53.426;10.300;2022-12-07T01:59:12;29.17;;;17.00;;
63110;SDS011;49201;53.426;10.300;2022-12-07T02:01:38;29.83;;;17.00;;
63110;SDS011;49201;53.426;10.300;2022-12-07T02:04:04;29.43;;;16.70;;
63110;SDS011;49201;53.426;10.300;2022-12-07T02:06:30;28.67;;;16.57;;
63110;SDS011;49201;53.426;10.300;2022-12-07T02:08:56;30.43;;;16.10;;
63110;SDS011;49201;53.426;10.300;2022-12-07T02:11:22;27.10;;;16.17;;
63110;SDS011;49201;53.426;10.300;2022-12-07T02:13:47;28.53;;;15.93;;
63110;SDS011;49201;53.426;10.300;2022-12-07T02:29:31;23.53;;;13.37;;
63110;SDS011;49201;53.426;10.300;2022-12-07T02:32:12;22.53;;;12.30;;
63110;SDS011;49201;53.426;10.300;2022-12-07T02:37:38;22.63;;;10.77;;
63110;SDS011;49201;53.426;10.300;2022-12-07T02:40:18;20.27;;;10.77;;
63110;SDS011;49201;53.426;10.300;2022-12-07T02:42:50;19.83;;;10.17;;
63110;SDS011;49201;53.426;10.300;2022-12-07T02:45:24;16.77;;;9.90;;
63110;SDS011;49201;53.426;10.300;2022-12-07T02:47:53;19.87;;;10.50;;
63110;SDS011;49201;53.426;10.300;2022-12-07T02:50:24;18.20;;;9.73;;
63110;SDS011;49201;53.426;10.300;2022-12-07T02:52:50;19.47;;;9.73;;
63110;SDS011;49201;53.426;10.300;2022-12-07T02:55:15;16.40;;;9.27;;
63110;SDS011;49201;53.426;10.300;2022-12-07T03:00:27;15.30;;;9.17;;
63110;SDS011;49201;53.426;10.300;2022-12-07T03:03:04;17.87;;;8.93;;
63110;SDS011;49201;53.426;10.300;2022-12-07T03:05:42;19.20;;;9.40;;
63110;SDS011;49201;53.426;10.300;2022-12-07T03:18:40;14.50;;;8.13;;
63110;SDS011;49201;53.426;10.300;2022-12-07T03:21:12;11.40;;;7.50;;
63110;SDS011;49201;53.426;10.300;2022-12-07T03:23:43;15.53;;;8.10;;
63110;SDS011;49201;53.426;10.300;2022-12-07T03:26:12;13.53;;;6.70;;
63110;SDS011;49201;53.426;10.300;2022-12-07T03:28:41;12.53;;;6.43;;
63110;SDS011;49201;53.426;10.300;2022-12-07T03:33:46;13.40;;;5.57;;
63110;SDS011;49201;53.426;10.300;2022-12-07T03:36:25;11.63;;;6.00;;
63110;SDS011;49201;53.426;10.300;2022-12-07T03:39:21;9.83;;;5.50;;
63110;SDS011;49201;53.426;10.300;2022-12-07T03:41:52;12.63;;;5.67;;
63110;SDS011;49201;53.426;10.300;2022-12-07T03:44:18;13.20;;;5.50;;
63110;SDS011;49201;53.426;10.300;2022-12-07T03:54:48;8.63;;;5.10;;
63110;SDS011;49201;53.426;10.300;2022-12-07T03:57:16;9.20;;;4.73;;
63110;SDS011;49201;53.426;10.300;2022-12-07T03:59:43;8.73;;;4.43;;
63110;SDS011;49201;53.426;10.300;2022-12-07T04:02:10;8.97;;;4.57;;
63110;SDS011;49201;53.426;10.300;2022-12-07T04:04:37;9.40;;;4.53;;
63110;SDS011;49201;53.426;10.300;2022-12-07T04:07:04;11.27;;;4.50;;
63110;SDS011;49201;53.426;10.300;2022-12-07T04:09:29;10.37;;;4.30;;
63110;SDS011;49201;53.426;10.300;2022-12-07T04:11:55;8.47;;;4.90;;
63110;SDS011;49201;53.426;10.300;2022-12-07T04:14:20;7.70;;;4.03;;
63110;SDS011;49201;53.426;10.300;2022-12-07T04:16:47;6.60;;;4.37;;
63110;SDS011;49201;53.426;10.300;2022-12-07T04:19:13;16.53;;;4.87;;
63110;SDS011;49201;53.426;10.300;2022-12-07T04:21:39;7.03;;;4.23;;
63110;SDS011;49201;53.426;10.300;2022-12-07T04:24:04;10.47;;;4.77;;
63110;SDS011;49201;53.426;10.300;2022-12-07T04:26:30;11.47;;;4.40;;
63110;SDS011;49201;53.426;10.300;2022-12-07T04:28:55;8.93;;;4.33;;
63110;SDS011;49201;53.426;10.300;2022-12-07T04:31:21;8.67;;;4.23;;
63110;SDS011;49201;53.426;10.300;2022-12-07T04:33:46;13.97;;;4.57;;
63110;SDS011;49201;53.426;10.300;2022-12-07T04:36:12;7.73;;;3.80;;
63110;SDS011;49201;53.426;10.300;2022-12-07T04:38:37;11.10;;;4.50;;
63110;SDS011;49201;53.426;10.300;2022-12-07T04:41:06;10.77;;;4.33;;
63110;SDS011;49201;53.426;10.300;2022-12-07T04:43:33;8.40;;;4.50;;
63110;SDS011;49201;53.426;10.300;2022-12-07T04:45:59;10.93;;;4.37;;
63110;SDS011;49201;53.426;10.300;2022-12-07T04:48:24;7.73;;;4.10;;
63110;SDS011;49201;53.426;10.300;2022-12-07T04:50:50;9.10;;;4.00;;
63110;SDS011;49201;53.426;10.300;2022-12-07T04:53:15;7.57;;;4.03;;
63110;SDS011;49201;53.426;10.300;2022-12-07T04:55:41;9.83;;;4.30;;
63110;SDS011;49201;53.426;10.300;2022-12-07T04:58:07;9.20;;;4.37;;
63110;SDS011;49201;53.426;10.300;2022-12-07T05:00:32;13.10;;;4.07;;
63110;SDS011;49201;53.426;10.300;2022-12-07T05:02:58;9.13;;;3.90;;
63110;SDS011;49201;53.426;10.300;2022-12-07T05:05:23;6.83;;;3.70;;
63110;SDS011;49201;53.426;10.300;2022-12-07T05:07:49;8.80;;;4.50;;
63110;SDS011;49201;53.426;10.300;2022-12-07T05:10:15;6.07;;;3.93;;
63110;SDS011;49201;53.426;10.300;2022-12-07T05:12:41;10.17;;;3.70;;
63110;SDS011;49201;53.426;10.300;2022-12-07T05:15:06;8.10;;;3.53;;
63110;SDS011;49201;53.426;10.300;2022-12-07T05:17:32;5.37;;;3.97;;
63110;SDS011;49201;53.426;10.300;2022-12-07T05:19:57;10.97;;;3.77;;
63110;SDS011;49201;53.426;10.300;2022-12-07T05:22:23;9.53;;;3.70;;
63110;SDS011;49201;53.426;10.300;2022-12-07T05:24:53;6.67;;;3.37;;
63110;SDS011;49201;53.426;10.300;2022-12-07T05:27:19;6.57;;;3.57;;
63110;SDS011;49201;53.426;10.300;2022-12-07T05:29:44;5.93;;;3.70;;
63110;SDS011;49201;53.426;10.300;2022-12-07T05:32:10;7.67;;;3.30;;
63110;SDS011;49201;53.426;10.300;2022-12-07T05:34:35;11.37;;;3.67;;
63110;SDS011;49201;53.426;10.300;2022-12-07T05:37:01;7.10;;;3.47;;
63110;SDS011;49201;53.426;10.300;2022-12-07T05:39:26;7.30;;;3.50;;
63110;SDS011;49201;53.426;10.300;2022-12-07T05:41:52;6.87;;;3.53;;
63110;SDS011;49201;53.426;10.300;2022-12-07T05:44:36;11.77;;;3.70;;
63110;SDS011;49201;53.426;10.300;2022-12-07T05:47:01;6.10;;;3.50;;
63110;SDS011;49201;53.426;10.300;2022-12-07T05:49:26;5.63;;;3.27;;
63110;SDS011;49201;53.426;10.300;2022-12-07T05:51:52;5.90;;;3.60;;
63110;SDS011;49201;53.426;10.300;2022-12-07T05:54:17;8.20;;;3.73;;
63110;SDS011;49201;53.426;10.300;2022-12-07T05:56:43;8.40;;;3.70;;
63110;SDS011;49201;53.426;10.300;2022-12-07T05:59:09;8.50;;;3.97;;
63110;SDS011;49201;53.426;10.300;2022-12-07T06:04:31;6.93;;;3.40;;
63110;SDS011;49201;53.426;10.300;2022-12-07T06:06:58;5.77;;;3.63;;
63110;SDS011;49201;53.426;10.300;2022-12-07T06:09:24;8.43;;;4.03;;
63110;SDS011;49201;53.426;10.300;2022-12-07T06:11:51;8.73;;;3.60;;
63110;SDS011;49201;53.426;10.300;2022-12-07T06:14:35;9.50;;;4.27;;
63110;SDS011;49201;53.426;10.300;2022-12-07T06:17:01;7.90;;;3.50;;
63110;SDS011;49201;53.426;10.300;2022-12-07T06:19:27;7.97;;;3.67;;
63110;SDS011;49201;53.426;10.300;2022-12-07T06:21:52;8.27;;;3.60;;
63110;SDS011;49201;53.426;10.300;2022-12-07T06:24:18;9.00;;;3.90;;
63110;SDS011;49201;53.426;10.300;2022-12-07T06:26:44;7.60;;;3.80;;
63110;SDS011;49201;53.426;10.300;2022-12-07T06:29:10;6.03;;;3.97;;
63110;SDS011;49201;53.426;10.300;2022-12-07T06:31:37;12.23;;;3.90;;
63110;SDS011;49201;53.426;10.300;2022-12-07T06:34:04;6.30;;;3.30;;
63110;SDS011;49201;53.426;10.300;2022-12-07T06:36:31;6.00;;;3.60;;
63110;SDS011;49201;53.426;10.300;2022-12-07T06:38:57;5.70;;;3.27;;
63110;SDS011;49201;53.426;10.300;2022-12-07T06:41:22;7.10;;;3.60;;
63110;SDS011;49201;53.426;10.300;2022-12-07T06:43:48;9.27;;;4.17;;
63110;SDS011;49201;53.426;10.300;2022-12-07T06:46:14;5.20;;;3.10;;
63110;SDS011;49201;53.426;10.300;2022-12-07T06:48:40;6.20;;;3.53;;
63110;SDS011;49201;53.426;10.300;2022-12-07T06:51:06;5.00;;;2.83;;
63110;SDS011;49201;53.426;10.300;2022-12-07T06:53:32;4.07;;;3.13;;
63110;SDS011;49201;53.426;10.300;2022-12-07T06:55:58;6.57;;;3.10;;
63110;SDS011;49201;53.426;10.300;2022-12-07T06:58:23;5.93;;;3.37;;
63110;SDS011;49201;53.426;10.300;2022-12-07T07:00:49;4.90;;;3.10;;
63110;SDS011;49201;53.426;10.300;2022-12-07T07:03:15;5.47;;;3.17;;
63110;SDS011;49201;53.426;10.300;2022-12-07T07:05:42;7.73;;;3.77;;
63110;SDS011;49201;53.426;10.300;2022-12-07T07:08:08;4.70;;;2.87;;
63110;SDS011;49201;53.426;10.300;2022-12-07T07:10:33;7.33;;;2.87;;
63110;SDS011;49201;53.426;10.300;2022-12-07T07:12:59;6.17;;;3.00;;
63110;SDS011;49201;53.426;10.300;2022-12-07T07:15:24;6.47;;;3.00;;
63110;SDS011;49201;53.426;10.300;2022-12-07T07:17:50;6.67;;;3.27;;
63110;SDS011;49201;53.426;10.300;2022-12-07T07:20:15;6.60;;;3.30;;
63110;SDS011;49201;53.426;10.300;2022-12-07T07:22:41;5.77;;;2.80;;
63110;SDS011;49201;53.426;10.300;2022-12-07T07:25:06;5.63;;;3.20;;
63110;SDS011;49201;53.426;10.300;2022-12-07T07:27:32;8.47;;;3.40;;
63110;SDS011;49201;53.426;10.300;2022-12-07T07:29:57;9.70;;;3.77;;
63110;SDS011;49201;53.426;10.300;2022-12-07T07:32:23;8.83;;;4.30;;
63110;SDS011;49201;53.426;10.300;2022-12-07T07:34:48;9.67;;;4.10;;
63110;SDS011;49201;53.426;10.300;2022-12-07T07:37:14;10.17;;;4.60;;
63110;SDS011;49201;53.426;10.300;2022-12-07T07:39:39;9.90;;;3.57;;
63110;SDS011;49201;53.426;10.300;2022-12-07T07:42:05;8.03;;;3.73;;
63110;SDS011;49201;53.426;10.300;2022-12-07T07:44:32;4.97;;;3.10;;
63110;SDS011;49201;53.426;10.300;2022-12-07T07:46:58;5.37;;;2.67;;
63110;SDS011;49201;53.426;10.300;2022-12-07T07:49:24;7.07;;;3.17;;
63110;SDS011;49201;53.426;10.300;2022-12-07T07:51:50;5.87;;;2.67;;
63110;SDS011;49201;53.426;10.300;2022-12-07T07:54:15;6.47;;;2.90;;
63110;SDS011;49201;53.426;10.300;2022-12-07T07:56:41;5.67;;;2.93;;
63110;SDS011;49201;53.426;10.300;2022-12-07T07:59:06;6.47;;;2.57;;
63110;SDS011;49201;53.426;10.300;2022-12-07T08:01:32;4.83;;;2.60;;
63110;SDS011;49201;53.426;10.300;2022-12-07T08:03:57;5.30;;;2.53;;
63110;SDS011;49201;53.426;10.300;2022-12-07T08:06:22;7.13;;;2.90;;
63110;SDS011;49201;53.426;10.300;2022-12-07T08:08:48;5.40;;;2.83;;
63110;SDS011;49201;53.426;10.300;2022-12-07T08:11:13;8.73;;;2.90;;
63110;SDS011;49201;53.426;10.300;2022-12-07T08:13:39;4.80;;;2.60;;
63110;SDS011;49201;53.426;10.300;2022-12-07T08:16:05;8.17;;;3.07;;
63110;SDS011;49201;53.426;10.300;2022-12-07T08:18:37;3.70;;;2.40;;
63110;SDS011;49201;53.426;10.300;2022-12-07T08:21:04;7.63;;;2.63;;
63110;SDS011;49201;53.426;10.300;2022-12-07T08:23:31;7.90;;;3.00;;
63110;SDS011;49201;53.426;10.300;2022-12-07T08:26:00;5.90;;;3.20;;
63110;SDS011;49201;53.426;10.300;2022-12-07T08:28:27;7.97;;;2.53;;
63110;SDS011;49201;53.426;10.300;2022-12-07T08:30:58;4.33;;;3.03;;
63110;SDS011;49201;53.426;10.300;2022-12-07T08:33:26;4.23;;;2.47;;
63110;SDS011;49201;53.426;10.300;2022-12-07T08:35:53;5.20;;;2.67;;
63110;SDS011;49201;53.426;10.300;2022-12-07T08:38:18;7.30;;;2.83;;
63110;SDS011;49201;53.426;10.300;2022-12-07T08:40:44;4.70;;;2.33;;
63110;SDS011;49201;53.426;10.300;2022-12-07T08:43:09;7.47;;;2.60;;
63110;SDS011;49201;53.426;10.300;2022-12-07T08:45:34;6.37;;;2.57;;
63110;SDS011;49201;53.426;10.300;2022-12-07T08:50:31;5.03;;;2.63;;
63110;SDS011;49201;53.426;10.300;2022-12-07T08:52:58;5.40;;;2.77;;
63110;SDS011;49201;53.426;10.300;2022-12-07T08:55:25;4.00;;;2.57;;
63110;SDS011;49201;53.426;10.300;2022-12-07T08:57:52;8.03;;;2.33;;
63110;SDS011;49201;53.426;10.300;2022-12-07T09:00:18;5.83;;;2.40;;
63110;SDS011;49201;53.426;10.300;2022-12-07T09:02:44;5.17;;;2.00;;
63110;SDS011;49201;53.426;10.300;2022-12-07T09:05:10;5.50;;;2.23;;
63110;SDS011;49201;53.426;10.300;2022-12-07T09:07:36;5.67;;;2.67;;
63110;SDS011;49201;53.426;10.300;2022-12-07T09:10:03;4.33;;;2.33;;
63110;SDS011;49201;53.426;10.300;2022-12-07T09:12:29;8.67;;;2.50;;
63110;SDS011;49201;53.426;10.300;2022-12-07T09:14:55;5.90;;;2.07;;
63110;SDS011;49201;53.426;10.300;2022-12-07T09:17:20;4.87;;;2.23;;
63110;SDS011;49201;53.426;10.300;2022-12-07T09:19:46;3.13;;;2.13;;
63110;SDS011;49201;53.426;10.300;2022-12-07T09:22:12;4.57;;;2.23;;
63110;SDS011;49201;53.426;10.300;2022-12-07T09:24:37;3.77;;;2.10;;
63110;SDS011;49201;53.426;10.300;2022-12-07T09:27:03;2.20;;;1.87;;
63110;SDS011;49201;53.426;10.300;2022-12-07T09:29:28;4.73;;;2.40;;
63110;SDS011;49201;53.426;10.300;2022-12-07T09:31:54;6.10;;;2.00;;
63110;SDS011;49201;53.426;10.300;2022-12-07T09:34:19;3.67;;;2.17;;
63110;SDS011;49201;53.426;10.300;2022-12-07T09:36:46;7.03;;;2.50;;
63110;SDS011;49201;53.426;10.300;2022-12-07T09:39:11;3.87;;;2.30;;
63110;SDS011;49201;53.426;10.300;2022-12-07T09:41:37;5.93;;;2.40;;
63110;SDS011;49201;53.426;10.300;2022-12-07T09:44:05;7.97;;;2.57;;
63110;SDS011;49201;53.426;10.300;2022-12-07T09:46:35;8.20;;;2.60;;
63110;SDS011;49201;53.426;10.300;2022-12-07T09:49:04;6.23;;;1.97;;
63110;SDS011;49201;53.426;10.300;2022-12-07T09:51:30;5.57;;;1.83;;
63110;SDS011;49201;53.426;10.300;2022-12-07T09:53:56;7.50;;;2.10;;
63110;SDS011;49201;53.426;10.300;2022-12-07T09:56:24;10.50;;;2.23;;
63110;SDS011;49201;53.426;10.300;2022-12-07T09:58:51;4.50;;;1.97;;
63110;SDS011;49201;53.426;10.300;2022-12-07T10:01:24;6.07;;;1.93;;
63110;SDS011;49201;53.426;10.300;2022-12-07T10:06:17;3.83;;;1.93;;
63110;SDS011;49201;53.426;10.300;2022-12-07T10:08:42;4.67;;;2.30;;
63110;SDS011;49201;53.426;10.300;2022-12-07T10:11:09;9.63;;;1.87;;
63110;SDS011;49201;53.426;10.300;2022-12-07T10:16:38;4.60;;;1.40;;
63110;SDS011;49201;53.426;10.300;2022-12-07T10:24:36;4.13;;;1.70;;
63110;SDS011;49201;53.426;10.300;2022-12-07T10:27:04;4.93;;;1.73;;
63110;SDS011;49201;53.426;10.300;2022-12-07T10:29:36;6.73;;;2.13;;
63110;SDS011;49201;53.426;10.300;2022-12-07T10:32:04;8.60;;;1.90;;
63110;SDS011;49201;53.426;10.300;2022-12-07T10:34:33;5.93;;;1.83;;
63110;SDS011;49201;53.426;10.300;2022-12-07T10:42:24;3.23;;;1.67;;
63110;SDS011;49201;53.426;10.300;2022-12-07T10:44:50;3.90;;;1.50;;
63110;SDS011;49201;53.426;10.300;2022-12-07T10:47:48;5.27;;;1.33;;
63110;SDS011;49201;53.426;10.300;2022-12-07T11:07:02;7.77;;;1.53;;
63110;SDS011;49201;53.426;10.300;2022-12-07T11:09:59;7.03;;;1.70;;
63110;SDS011;49201;53.426;10.300;2022-12-07T11:12:59;3.47;;;1.30;;
63110;SDS011;49201;53.426;10.300;2022-12-07T11:24:14;4.80;;;1.03;;
63110;SDS011;49201;53.426;10.300;2022-12-07T11:35:07;4.87;;;1.00;;
63110;SDS011;49201;53.426;10.300;2022-12-07T11:37:36;5.17;;;1.10;;
63110;SDS011;49201;53.426;10.300;2022-12-07T11:42:41;3.23;;;1.10;;
63110;SDS011;49201;53.426;10.300;2022-12-07T11:45:19;6.17;;;1.30;;
63110;SDS011;49201;53.426;10.300;2022-12-07T11:47:54;2.90;;;1.10;;
63110;SDS011;49201;53.426;10.300;2022-12-07T11:50:31;4.90;;;0.90;;
63110;SDS011;49201;53.426;10.300;2022-12-07T12:03:48;5.33;;;1.00;;
63110;SDS011;49201;53.426;10.300;2022-12-07T12:06:16;5.50;;;1.10;;
63110;SDS011;49201;53.426;10.300;2022-12-07T12:08:43;7.57;;;1.33;;
63110;SDS011;49201;53.426;10.300;2022-12-07T12:14:25;3.87;;;1.00;;
63110;SDS011;49201;53.426;10.300;2022-12-07T12:17:00;4.43;;;0.93;;
63110;SDS011;49201;53.426;10.300;2022-12-07T12:19:42;6.57;;;1.57;;
63110;SDS011;49201;53.426;10.300;2022-12-07T12:22:40;5.83;;;1.27;;
63110;SDS011;49201;53.426;10.300;2022-12-07T12:25:50;4.97;;;1.53;;
63110;SDS011;49201;53.426;10.300;2022-12-07T12:28:03;6.43;;;1.20;;
63110;SDS011;49201;53.426;10.300;2022-12-07T12:33:03;7.90;;;1.40;;
63110;SDS011;49201;53.426;10.300;2022-12-07T12:35:33;5.07;;;1.10;;
63110;SDS011;49201;53.426;10.300;2022-12-07T12:40:44;4.53;;;1.23;;
63110;SDS011;49201;53.426;10.300;2022-12-07T12:51:44;6.03;;;1.43;;
63110;SDS011;49201;53.426;10.300;2022-12-07T12:54:15;8.93;;;1.50;;
63110;SDS011;49201;53.426;10.300;2022-12-07T12:59:30;6.27;;;1.70;;
63110;SDS011;49201;53.426;10.300;2022-12-07T13:02:15;5.60;;;1.23;;
63110;SDS011;49201;53.426;10.300;2022-12-07T13:04:57;6.13;;;1.40;;
63110;SDS011;49201;53.426;10.300;2022-12-07T13:11:15;5.03;;;1.30;;
63110;SDS011;49201;53.426;10.300;2022-12-07T13:20:49;10.83;;;1.43;;
63110;SDS011;49201;53.426;10.300;2022-12-07T13:23:19;3.10;;;1.10;;
63110;SDS011;49201;53.426;10.300;2022-12-07T13:28:45;6.80;;;1.40;;
63110;SDS011;49201;53.426;10.300;2022-12-07T13:31:44;7.07;;;1.87;;
63110;SDS011;49201;53.426;10.300;2022-12-07T13:42:30;6.93;;;1.30;;
63110;SDS011;49201;53.426;10.300;2022-12-07T13:44:58;7.53;;;1.27;;
63110;SDS011;49201;53.426;10.300;2022-12-07T13:50:20;9.60;;;1.33;;
63110;SDS011;49201;53.426;10.300;2022-12-07T13:52:50;4.63;;;1.17;;
63110;SDS011;49201;53.426;10.300;2022-12-07T13:55:16;10.27;;;1.80;;
63110;SDS011;49201;53.426;10.300;2022-12-07T13:57:42;5.27;;;1.67;;
63110;SDS011;49201;53.426;10.300;2022-12-07T14:00:29;6.67;;;1.50;;
63110;SDS011;49201;53.426;10.300;2022-12-07T14:05:28;3.80;;;1.40;;
63110;SDS011;49201;53.426;10.300;2022-12-07T14:08:05;3.70;;;1.00;;
63110;SDS011;49201;53.426;10.300;2022-12-07T14:16:03;4.23;;;1.40;;
63110;SDS011;49201;53.426;10.300;2022-12-07T14:18:42;8.20;;;1.60;;
63110;SDS011;49201;53.426;10.300;2022-12-07T14:21:14;6.87;;;1.77;;
63110;SDS011;49201;53.426;10.300;2022-12-07T14:23:43;4.73;;;1.10;;
63110;SDS011;49201;53.426;10.300;2022-12-07T14:28:39;7.90;;;1.70;;
63110;SDS011;49201;53.426;10.300;2022-12-07T14:31:13;7.00;;;2.07;;
63110;SDS011;49201;53.426;10.300;2022-12-07T14:33:43;15.03;;;1.57;;
63110;SDS011;49201;53.426;10.300;2022-12-07T14:36:09;4.90;;;1.53;;
63110;SDS011;49201;53.426;10.300;2022-12-07T14:38:35;8.57;;;1.43;;
63110;SDS011;49201;53.426;10.300;2022-12-07T14:41:03;4.47;;;1.20;;
63110;SDS011;49201;53.426;10.300;2022-12-07T14:43:50;7.80;;;1.30;;
63110;SDS011;49201;53.426;10.300;2022-12-07T14:46:15;3.83;;;0.80;;
63110;SDS011;49201;53.426;10.300;2022-12-07T14:48:41;5.37;;;1.23;;
63110;SDS011;49201;53.426;10.300;2022-12-07T14:51:07;6.40;;;1.30;;
63110;SDS011;49201;53.426;10.300;2022-12-07T14:53:38;4.63;;;0.90;;
63110;SDS011;49201;53.426;10.300;2022-12-07T14:56:06;5.10;;;0.83;;
63110;SDS011;49201;53.426;10.300;2022-12-07T14:58:32;6.37;;;1.17;;
63110;SDS011;49201;53.426;10.300;2022-12-07T15:00:58;3.80;;;0.90;;
63110;SDS011;49201;53.426;10.300;2022-12-07T15:03:24;5.87;;;1.33;;
63110;SDS011;49201;53.426;10.300;2022-12-07T15:05:49;7.63;;;1.17;;
63110;SDS011;49201;53.426;10.300;2022-12-07T15:08:15;4.73;;;1.17;;
63110;SDS011;49201;53.426;10.300;2022-12-07T15:10:40;6.43;;;1.13;;
63110;SDS011;49201;53.426;10.300;2022-12-07T15:13:06;3.67;;;0.90;;
63110;SDS011;49201;53.426;10.300;2022-12-07T15:15:52;9.07;;;1.40;;
63110;SDS011;49201;53.426;10.300;2022-12-07T15:18:18;4.63;;;1.03;;
63110;SDS011;49201;53.426;10.300;2022-12-07T15:20:45;6.33;;;1.10;;
63110;SDS011;49201;53.426;10.300;2022-12-07T15:23:11;4.27;;;0.70;;
63110;SDS011;49201;53.426;10.300;2022-12-07T15:25:41;3.70;;;0.90;;
63110;SDS011;49201;53.426;10.300;2022-12-07T15:28:08;4.30;;;1.23;;
63110;SDS011;49201;53.426;10.300;2022-12-07T15:30:33;4.50;;;0.80;;
63110;SDS011;49201;53.426;10.300;2022-12-07T15:32:59;3.60;;;0.80;;
63110;SDS011;49201;53.426;10.300;2022-12-07T15:35:24;4.87;;;0.80;;
63110;SDS011;49201;53.426;10.300;2022-12-07T15:37:49;4.87;;;1.10;;
63110;SDS011;49201;53.426;10.300;2022-12-07T15:40:15;5.90;;;1.07;;
63110;SDS011;49201;53.426;10.300;2022-12-07T15:42:40;3.07;;;1.30;;
63110;SDS011;49201;53.426;10.300;2022-12-07T15:45:06;9.00;;;3.43;;
63110;SDS011;49201;53.426;10.300;2022-12-07T15:47:35;7.70;;;3.40;;
63110;SDS011;49201;53.426;10.300;2022-12-07T15:50:06;5.67;;;2.43;;
63110;SDS011;49201;53.426;10.300;2022-12-07T15:52:34;6.60;;;2.47;;
63110;SDS011;49201;53.426;10.300;2022-12-07T15:55:00;7.30;;;2.00;;
63110;SDS011;49201;53.426;10.300;2022-12-07T15:57:27;4.37;;;1.67;;
63110;SDS011;49201;53.426;10.300;2022-12-07T15:59:53;3.83;;;1.70;;
63110;SDS011;49201;53.426;10.300;2022-12-07T16:02:18;4.90;;;2.10;;
63110;SDS011;49201;53.426;10.300;2022-12-07T16:04:44;5.50;;;1.80;;
63110;SDS011;49201;53.426;10.300;2022-12-07T16:07:10;5.00;;;2.33;;
63110;SDS011;49201;53.426;10.300;2022-12-07T16:09:37;8.10;;;2.97;;
63110;SDS011;49201;53.426;10.300;2022-12-07T16:12:03;6.17;;;2.17;;
63110;SDS011;49201;53.426;10.300;2022-12-07T16:14:28;8.53;;;2.30;;
63110;SDS011;49201;53.426;10.300;2022-12-07T16:16:54;7.97;;;2.40;;
63110;SDS011;49201;53.426;10.300;2022-12-07T16:19:20;8.07;;;2.50;;
63110;SDS011;49201;53.426;10.300;2022-12-07T16:21:46;5.63;;;2.60;;
63110;SDS011;49201;53.426;10.300;2022-12-07T16:24:11;6.93;;;2.50;;
63110;SDS011;49201;53.426;10.300;2022-12-07T16:26:40;6.73;;;2.80;;
63110;SDS011;49201;53.426;10.300;2022-12-07T16:29:05;6.00;;;2.77;;
63110;SDS011;49201;53.426;10.300;2022-12-07T16:31:31;7.03;;;2.77;;
63110;SDS011;49201;53.426;10.300;2022-12-07T16:33:57;6.47;;;2.77;;
63110;SDS011;49201;53.426;10.300;2022-12-07T16:36:23;8.87;;;3.33;;
63110;SDS011;49201;53.426;10.300;2022-12-07T16:38:51;8.47;;;3.50;;
63110;SDS011;49201;53.426;10.300;2022-12-07T16:41:17;8.47;;;3.33;;
63110;SDS011;49201;53.426;10.300;2022-12-07T16:43:43;6.77;;;3.63;;
63110;SDS011;49201;53.426;10.300;2022-12-07T16:46:08;10.03;;;3.93;;
63110;SDS011;49201;53.426;10.300;2022-12-07T16:48:35;6.33;;;3.60;;
63110;SDS011;49201;53.426;10.300;2022-12-07T16:51:02;5.77;;;3.33;;
63110;SDS011;49201;53.426;10.300;2022-12-07T16:53:33;5.70;;;3.10;;
63110;SDS011;49201;53.426;10.300;2022-12-07T16:55:59;12.67;;;3.97;;
63110;SDS011;49201;53.426;10.300;2022-12-07T16:58:24;9.57;;;3.50;;
63110;SDS011;49201;53.426;10.300;2022-12-07T17:00:50;6.27;;;3.70;;
63110;SDS011;49201;53.426;10.300;2022-12-07T17:03:15;8.40;;;3.43;;
63110;SDS011;49201;53.426;10.300;2022-12-07T17:05:42;9.20;;;3.80;;
63110;SDS011;49201;53.426;10.300;2022-12-07T17:08:09;9.17;;;4.13;;
63110;SDS011;49201;53.426;10.300;2022-12-07T17:10:36;7.30;;;3.93;;
63110;SDS011;49201;53.426;10.300;2022-12-07T17:13:03;7.10;;;4.30;;
63110;SDS011;49201;53.426;10.300;2022-12-07T17:18:21;9.93;;;4.80;;
63110;SDS011;49201;53.426;10.300;2022-12-07T17:20:47;9.03;;;5.00;;
63110;SDS011;49201;53.426;10.300;2022-12-07T17:23:12;9.80;;;4.67;;
63110;SDS011;49201;53.426;10.300;2022-12-07T17:25:37;10.90;;;4.73;;